createdAt,value
2022-10-30T00:00:24.713Z,11.14
2022-10-30T00:01:24.795Z,11.14
2022-10-30T00:02:24.727Z,11.14
2022-10-30T00:03:24.692Z,11.11
2022-10-30T00:04:24.661Z,11.14
2022-10-30T00:05:25.110Z,11.14
2022-10-30T00:06:24.682Z,11.14
2022-10-30T00:07:25.101Z,11.14
2022-10-30T00:08:25.001Z,11.14
2022-10-30T00:09:25.498Z,11.14
2022-10-30T00:10:24.614Z,11.14
2022-10-30T00:11:24.614Z,11.10
2022-10-30T00:12:24.731Z,11.10
2022-10-30T00:13:24.593Z,11.10
2022-10-30T00:14:24.560Z,11.07
2022-10-30T00:15:24.570Z,11.09
2022-10-30T00:16:24.541Z,11.09
2022-10-30T00:17:24.964Z,11.07
2022-10-30T00:18:24.508Z,11.07
2022-10-30T00:19:24.520Z,11.06
2022-10-30T00:20:24.480Z,11.03
2022-10-30T00:21:24.505Z,11.02
2022-10-30T00:22:24.602Z,11.02
2022-10-30T00:23:24.470Z,10.99
2022-10-30T00:24:24.483Z,10.99
2022-10-30T00:25:24.467Z,10.96
2022-10-30T00:26:24.414Z,10.96
2022-10-30T00:27:24.430Z,10.94
2022-10-30T00:28:24.417Z,10.94
2022-10-30T00:29:24.408Z,10.94
2022-10-30T00:30:24.361Z,10.94
2022-10-30T00:31:24.450Z,10.94
2022-10-30T00:32:24.371Z,10.94
2022-10-30T00:33:24.371Z,10.96
2022-10-30T00:34:24.346Z,10.92
2022-10-30T00:35:24.372Z,10.92
2022-10-30T00:36:24.291Z,10.91
2022-10-30T00:37:24.319Z,10.89
2022-10-30T00:38:24.308Z,10.89
2022-10-30T00:39:24.280Z,10.89
2022-10-30T00:40:24.252Z,10.88
2022-10-30T00:41:24.254Z,10.88
2022-10-30T00:42:24.990Z,10.86
2022-10-30T00:43:24.230Z,10.88
2022-10-30T00:44:24.228Z,10.88
2022-10-30T00:45:24.233Z,10.89
2022-10-30T00:46:24.181Z,10.89
2022-10-30T00:47:24.199Z,10.88
2022-10-30T00:48:24.158Z,10.88
2022-10-30T00:49:24.181Z,10.86
2022-10-30T00:50:24.199Z,10.85
2022-10-30T00:51:24.130Z,10.84
2022-10-30T00:52:24.135Z,10.82
2022-10-30T00:53:24.600Z,10.82
2022-10-30T00:54:24.212Z,10.82
2022-10-30T00:55:24.331Z,10.84
2022-10-30T00:56:24.071Z,10.82
2022-10-30T00:57:24.098Z,10.81
2022-10-30T00:58:24.050Z,10.82
2022-10-30T00:59:24.051Z,10.84
2022-10-30T01:00:24.014Z,10.82
2022-10-30T01:01:24.101Z,10.78
2022-10-30T01:02:24.132Z,10.74
2022-10-30T01:03:24.030Z,10.70
2022-10-30T01:04:28.925Z,10.67
2022-10-30T01:05:24.970Z,10.64
2022-10-30T01:06:24.199Z,10.61
2022-10-30T01:07:23.951Z,10.59
2022-10-30T01:08:24.009Z,10.56
2022-10-30T01:09:23.941Z,10.53
2022-10-30T01:10:23.932Z,10.51
2022-10-30T01:11:24.671Z,10.51
2022-10-30T01:12:23.895Z,10.47
2022-10-30T01:13:24.223Z,10.47
2022-10-30T01:14:23.942Z,10.44
2022-10-30T01:15:23.930Z,10.42
2022-10-30T01:16:23.830Z,10.42
2022-10-30T01:17:24.351Z,10.38
2022-10-30T01:18:23.832Z,10.34
2022-10-30T01:19:23.818Z,10.32
2022-10-30T01:20:23.820Z,10.30
2022-10-30T01:21:23.791Z,10.29
2022-10-30T01:22:23.760Z,10.27
2022-10-30T01:23:23.769Z,10.27
2022-10-30T01:24:23.740Z,10.25
2022-10-30T01:25:23.816Z,10.18
2022-10-30T01:26:44.732Z,10.15
2022-10-30T01:27:23.716Z,10.15
2022-10-30T01:28:23.719Z,10.14
2022-10-30T01:29:23.700Z,10.09
2022-10-30T01:30:23.708Z,10.08
2022-10-30T01:31:23.659Z,10.05
2022-10-30T01:32:23.672Z,10.04
2022-10-30T01:33:23.638Z,10.02
2022-10-30T01:34:23.670Z,10.01
2022-10-30T01:35:24.279Z,9.99
2022-10-30T01:36:24.290Z,9.96
2022-10-30T01:37:23.597Z,9.96
2022-10-30T01:38:23.609Z,9.91
2022-10-30T01:39:23.570Z,9.89
2022-10-30T01:40:23.579Z,9.86
2022-10-30T01:41:23.551Z,9.86
2022-10-30T01:42:23.564Z,9.84
2022-10-30T01:43:23.530Z,9.81
2022-10-30T01:44:24.272Z,9.78
2022-10-30T01:45:23.529Z,9.78
2022-10-30T01:46:23.512Z,9.76
2022-10-30T01:47:23.510Z,9.76
2022-10-30T01:48:23.481Z,9.74
2022-10-30T01:50:23.559Z,9.69
2022-10-30T01:51:23.429Z,9.64
2022-10-30T01:52:23.441Z,9.61
2022-10-30T01:53:23.440Z,9.56
2022-10-30T01:54:23.609Z,9.50
2022-10-30T01:55:23.402Z,9.48
2022-10-30T01:56:23.399Z,9.46
2022-10-30T01:57:23.409Z,9.43
2022-10-30T01:58:23.377Z,9.40
2022-10-30T01:59:23.348Z,9.40
2022-10-30T02:00:23.367Z,9.42
2022-10-30T02:01:23.500Z,9.40
2022-10-30T02:02:23.397Z,9.39
2022-10-30T02:03:23.325Z,9.38
2022-10-30T02:04:23.759Z,9.35
2022-10-30T02:05:23.766Z,9.35
2022-10-30T02:06:23.559Z,9.33
2022-10-30T02:07:23.365Z,9.32
2022-10-30T02:08:23.266Z,9.32
2022-10-30T02:09:23.990Z,9.32
2022-10-30T02:10:23.226Z,9.31
2022-10-30T02:11:23.211Z,9.31
2022-10-30T02:12:23.206Z,9.29
2022-10-30T02:13:23.178Z,9.28
2022-10-30T02:14:23.224Z,9.26
2022-10-30T02:15:23.220Z,9.24
2022-10-30T02:16:23.230Z,9.24
2022-10-30T02:17:23.148Z,9.23
2022-10-30T02:18:23.129Z,9.18
2022-10-30T02:19:23.109Z,9.17
2022-10-30T02:20:23.490Z,9.13
2022-10-30T02:21:23.278Z,9.17
2022-10-30T02:22:23.151Z,9.14
2022-10-30T02:23:23.075Z,9.18
2022-10-30T02:24:23.088Z,9.20
2022-10-30T02:25:23.040Z,9.18
2022-10-30T02:26:23.057Z,9.20
2022-10-30T02:27:23.036Z,9.20
2022-10-30T02:28:23.018Z,9.18
2022-10-30T02:29:23.027Z,9.18
2022-10-30T02:30:23.008Z,9.15
2022-10-30T02:31:23.347Z,9.17
2022-10-30T02:32:22.970Z,9.15
2022-10-30T02:33:22.968Z,9.15
2022-10-30T02:34:22.958Z,9.15
2022-10-30T02:35:23.064Z,9.18
2022-10-30T02:36:23.062Z,9.17
2022-10-30T02:37:22.966Z,9.17
2022-10-30T02:38:22.908Z,9.17
2022-10-30T02:39:22.976Z,9.17
2022-10-30T02:40:22.889Z,9.20
2022-10-30T02:41:22.869Z,9.18
2022-10-30T02:42:23.098Z,9.18
2022-10-30T02:43:22.842Z,9.23
2022-10-30T02:44:22.840Z,9.24
2022-10-30T02:45:22.840Z,9.26
2022-10-30T02:46:22.849Z,9.28
2022-10-30T02:47:22.792Z,9.28
2022-10-30T02:48:23.162Z,9.31
2022-10-30T02:49:23.047Z,9.32
2022-10-30T02:50:22.777Z,9.36
2022-10-30T02:51:22.767Z,9.36
2022-10-30T02:52:22.757Z,9.40
2022-10-30T02:53:22.989Z,9.40
2022-10-30T02:54:22.731Z,9.42
2022-10-30T02:55:22.987Z,9.42
2022-10-30T02:56:23.104Z,9.43
2022-10-30T02:57:22.922Z,9.47
2022-10-30T02:58:22.907Z,9.46
2022-10-30T02:59:23.230Z,9.47
2022-10-30T03:00:22.658Z,9.48
2022-10-30T03:01:22.781Z,9.47
2022-10-30T03:02:22.738Z,9.47
2022-10-30T03:03:24.158Z,9.47
2022-10-30T03:04:22.747Z,9.47
2022-10-30T03:05:22.748Z,9.47
2022-10-30T03:06:22.762Z,9.46
2022-10-30T03:07:22.583Z,9.47
2022-10-30T03:08:22.576Z,9.46
2022-10-30T03:09:22.538Z,9.47
2022-10-30T03:10:22.553Z,9.50
2022-10-30T03:11:22.553Z,9.48
2022-10-30T03:12:22.605Z,9.47
2022-10-30T03:13:22.498Z,9.48
2022-10-30T03:14:22.513Z,9.47
2022-10-30T03:15:22.481Z,9.50
2022-10-30T03:16:22.537Z,9.50
2022-10-30T03:17:22.525Z,9.50
2022-10-30T03:18:22.527Z,9.50
2022-10-30T03:19:22.434Z,9.53
2022-10-30T03:20:22.445Z,9.53
2022-10-30T03:21:22.412Z,9.51
2022-10-30T03:22:22.406Z,9.53
2022-10-30T03:23:22.397Z,9.51
2022-10-30T03:24:22.406Z,9.51
2022-10-30T03:25:22.366Z,9.53
2022-10-30T03:26:22.394Z,9.51
2022-10-30T03:27:22.337Z,9.51
2022-10-30T03:28:22.351Z,9.51
2022-10-30T03:29:22.307Z,9.53
2022-10-30T03:30:22.307Z,9.51
2022-10-30T03:31:22.316Z,9.51
2022-10-30T03:32:22.359Z,9.51
2022-10-30T03:33:22.318Z,9.50
2022-10-30T03:34:22.368Z,9.50
2022-10-30T03:35:22.256Z,9.51
2022-10-30T03:36:23.020Z,9.53
2022-10-30T03:37:22.556Z,9.53
2022-10-30T03:38:22.590Z,9.53
2022-10-30T03:39:22.196Z,9.53
2022-10-30T03:40:22.195Z,9.53
2022-10-30T03:41:22.187Z,9.54
2022-10-30T03:42:22.184Z,9.53
2022-10-30T03:43:22.196Z,9.53
2022-10-30T03:44:22.207Z,9.50
2022-10-30T03:45:22.307Z,9.48
2022-10-30T03:46:22.146Z,9.46
2022-10-30T03:47:22.108Z,9.42
2022-10-30T03:48:22.874Z,9.38
2022-10-30T03:49:22.076Z,9.36
2022-10-30T03:50:22.110Z,9.35
2022-10-30T03:51:22.074Z,9.35
2022-10-30T03:52:22.076Z,9.33
2022-10-30T03:53:22.053Z,9.32
2022-10-30T03:54:22.091Z,9.32
2022-10-30T03:55:22.017Z,9.32
2022-10-30T03:56:22.007Z,9.29
2022-10-30T03:57:22.017Z,9.29
2022-10-30T03:58:21.975Z,9.28
2022-10-30T03:59:21.977Z,9.29
2022-10-30T04:00:22.025Z,9.29
2022-10-30T04:01:22.025Z,9.31
2022-10-30T04:02:21.949Z,9.32
2022-10-30T04:03:21.936Z,9.31
2022-10-30T04:04:21.928Z,9.33
2022-10-30T04:05:22.002Z,9.33
2022-10-30T04:06:21.921Z,9.36
2022-10-30T04:07:21.895Z,9.36
2022-10-30T04:08:21.878Z,9.36
2022-10-30T04:09:21.871Z,9.36
2022-10-30T04:10:23.935Z,9.35
2022-10-30T04:11:21.885Z,9.33
2022-10-30T04:12:21.846Z,9.32
2022-10-30T04:13:21.808Z,9.32
2022-10-30T04:14:21.894Z,9.29
2022-10-30T04:15:21.839Z,9.26
2022-10-30T04:16:21.814Z,9.26
2022-10-30T04:17:21.856Z,9.23
2022-10-30T04:18:21.824Z,9.20
2022-10-30T04:19:21.852Z,9.20
2022-10-30T04:20:21.735Z,9.15
2022-10-30T04:21:21.715Z,9.14
2022-10-30T04:22:21.747Z,9.13
2022-10-30T04:23:21.720Z,9.08
2022-10-30T04:24:21.696Z,9.02
2022-10-30T04:25:21.676Z,9.01
2022-10-30T04:26:21.702Z,8.98
2022-10-30T04:27:21.683Z,8.98
2022-10-30T04:28:21.645Z,8.95
2022-10-30T04:29:21.651Z,8.92
2022-10-30T04:30:21.625Z,8.91
2022-10-30T04:31:21.634Z,8.92
2022-10-30T04:32:21.625Z,8.92
2022-10-30T04:33:21.623Z,8.91
2022-10-30T04:34:22.370Z,8.89
2022-10-30T04:35:22.103Z,8.86
2022-10-30T04:36:21.585Z,8.86
2022-10-30T04:37:21.586Z,8.84
2022-10-30T04:38:21.556Z,8.80
2022-10-30T04:39:21.567Z,8.79
2022-10-30T04:40:21.568Z,8.74
2022-10-30T04:41:21.505Z,8.70
2022-10-30T04:42:21.526Z,8.66
2022-10-30T04:43:21.479Z,8.66
2022-10-30T04:44:21.480Z,8.65
2022-10-30T04:45:21.656Z,8.63
2022-10-30T04:46:21.603Z,8.61
2022-10-30T04:47:21.527Z,8.59
2022-10-30T04:48:21.464Z,8.58
2022-10-30T04:49:21.396Z,8.55
2022-10-30T04:50:21.402Z,8.53
2022-10-30T04:51:21.635Z,8.52
2022-10-30T04:52:21.396Z,8.52
2022-10-30T04:53:21.355Z,8.50
2022-10-30T04:54:21.366Z,8.48
2022-10-30T04:55:21.353Z,8.45
2022-10-30T04:56:21.355Z,8.44
2022-10-30T04:57:21.305Z,8.41
2022-10-30T04:58:21.336Z,8.41
2022-10-30T04:59:21.388Z,8.38
2022-10-30T05:00:21.396Z,8.37
2022-10-30T05:01:21.354Z,8.34
2022-10-30T05:02:21.421Z,8.29
2022-10-30T05:03:21.250Z,8.28
2022-10-30T05:04:21.328Z,8.26
2022-10-30T05:05:21.231Z,8.23
2022-10-30T05:06:21.233Z,8.22
2022-10-30T05:07:21.204Z,8.20
2022-10-30T05:08:21.226Z,8.18
2022-10-30T05:09:21.233Z,8.16
2022-10-30T05:10:21.193Z,8.15
2022-10-30T05:11:21.154Z,8.12
2022-10-30T05:12:21.170Z,8.12
2022-10-30T05:13:21.132Z,8.12
2022-10-30T05:14:21.144Z,8.15
2022-10-30T05:15:21.124Z,8.16
2022-10-30T05:16:21.132Z,8.19
2022-10-30T05:17:21.161Z,8.18
2022-10-30T05:18:21.097Z,8.16
2022-10-30T05:19:21.141Z,8.12
2022-10-30T05:20:21.545Z,8.10
2022-10-30T05:21:21.032Z,8.08
2022-10-30T05:22:21.074Z,8.07
2022-10-30T05:23:21.024Z,8.04
2022-10-30T05:24:21.063Z,8.05
2022-10-30T05:25:21.019Z,8.05
2022-10-30T05:26:21.042Z,8.05
2022-10-30T05:27:21.338Z,8.05
2022-10-30T05:28:20.998Z,8.04
2022-10-30T05:29:20.964Z,8.04
2022-10-30T05:30:20.982Z,8.04
2022-10-30T05:31:20.942Z,8.01
2022-10-30T05:32:20.968Z,8.01
2022-10-30T05:33:20.927Z,8.00
2022-10-30T05:34:20.913Z,8.00
2022-10-30T05:35:20.927Z,7.98
2022-10-30T05:36:20.895Z,7.95
2022-10-30T05:37:21.143Z,7.93
2022-10-30T05:38:20.881Z,7.90
2022-10-30T05:39:21.252Z,7.90
2022-10-30T05:40:21.176Z,7.90
2022-10-30T05:41:20.842Z,7.89
2022-10-30T05:42:20.815Z,7.90
2022-10-30T05:43:20.820Z,7.92
2022-10-30T05:44:34.322Z,7.93
2022-10-30T05:45:21.785Z,7.93
2022-10-30T05:46:20.772Z,7.92
2022-10-30T05:47:20.794Z,7.90
2022-10-30T05:48:20.739Z,7.89
2022-10-30T05:49:20.742Z,7.86
2022-10-30T05:50:20.712Z,7.85
2022-10-30T05:51:20.743Z,7.79
2022-10-30T05:52:20.752Z,7.77
2022-10-30T05:53:20.713Z,7.75
2022-10-30T05:54:20.681Z,7.72
2022-10-30T05:55:20.681Z,7.72
2022-10-30T05:56:20.651Z,7.74
2022-10-30T05:57:20.655Z,7.69
2022-10-30T05:58:20.622Z,7.68
2022-10-30T05:59:21.300Z,7.69
2022-10-30T06:00:20.992Z,7.67
2022-10-30T06:01:20.721Z,7.67
2022-10-30T06:02:20.635Z,7.67
2022-10-30T06:03:20.603Z,7.64
2022-10-30T06:04:20.562Z,7.63
2022-10-30T06:05:20.551Z,7.63
2022-10-30T06:06:20.569Z,7.63
2022-10-30T06:07:20.549Z,7.67
2022-10-30T06:08:20.521Z,7.64
2022-10-30T06:09:20.514Z,7.63
2022-10-30T06:10:20.504Z,7.60
2022-10-30T06:11:20.496Z,7.57
2022-10-30T06:12:20.468Z,7.55
2022-10-30T06:13:20.469Z,7.53
2022-10-30T06:14:20.458Z,7.49
2022-10-30T06:15:20.460Z,7.48
2022-10-30T06:16:21.221Z,7.48
2022-10-30T06:17:21.129Z,7.50
2022-10-30T06:18:20.392Z,7.55
2022-10-30T06:19:20.413Z,7.55
2022-10-30T06:20:20.397Z,7.57
2022-10-30T06:21:20.635Z,7.60
2022-10-30T06:22:20.349Z,7.58
2022-10-30T06:23:20.351Z,7.55
2022-10-30T06:24:20.691Z,7.53
2022-10-30T06:25:20.381Z,7.50
2022-10-30T06:26:20.336Z,7.50
2022-10-30T06:27:20.316Z,7.50
2022-10-30T06:28:20.374Z,7.48
2022-10-30T06:29:20.311Z,7.49
2022-10-30T06:30:20.301Z,7.46
2022-10-30T06:32:20.262Z,7.49
2022-10-30T06:33:20.245Z,7.46
2022-10-30T06:34:20.219Z,7.46
2022-10-30T06:35:20.294Z,7.45
2022-10-30T06:36:20.199Z,7.45
2022-10-30T06:37:20.323Z,7.43
2022-10-30T06:38:20.171Z,7.43
2022-10-30T06:39:20.191Z,7.42
2022-10-30T06:40:20.173Z,7.43
2022-10-30T06:41:23.330Z,7.43
2022-10-30T06:42:21.183Z,7.40
2022-10-30T06:43:20.181Z,7.42
2022-10-30T06:44:20.119Z,7.40
2022-10-30T06:45:20.157Z,7.40
2022-10-30T06:46:20.101Z,7.42
2022-10-30T06:47:20.132Z,7.42
2022-10-30T06:48:20.068Z,7.42
2022-10-30T06:49:20.068Z,7.43
2022-10-30T06:50:20.075Z,7.46
2022-10-30T06:51:20.063Z,7.48
2022-10-30T06:52:20.025Z,7.46
2022-10-30T06:53:20.027Z,7.45
2022-10-30T06:54:20.010Z,7.48
2022-10-30T06:55:20.007Z,7.48
2022-10-30T06:56:19.969Z,7.46
2022-10-30T06:57:19.978Z,7.46
2022-10-30T06:58:19.997Z,7.46
2022-10-30T06:59:19.958Z,7.46
2022-10-30T07:00:19.928Z,7.48
2022-10-30T07:01:20.003Z,7.48
2022-10-30T07:02:20.143Z,7.50
2022-10-30T07:03:19.920Z,7.50
2022-10-30T07:04:19.886Z,7.52
2022-10-30T07:05:19.897Z,7.52
2022-10-30T07:06:19.889Z,7.52
2022-10-30T07:07:19.859Z,7.50
2022-10-30T07:08:19.839Z,7.52
2022-10-30T07:09:20.587Z,7.52
2022-10-30T07:10:19.839Z,7.52
2022-10-30T07:11:19.831Z,7.53
2022-10-30T07:12:19.797Z,7.55
2022-10-30T07:13:19.798Z,7.55
2022-10-30T07:14:19.827Z,7.55
2022-10-30T07:15:19.785Z,7.57
2022-10-30T07:16:19.750Z,7.60
2022-10-30T07:17:19.761Z,7.63
2022-10-30T07:18:19.751Z,7.64
2022-10-30T07:19:19.739Z,7.67
2022-10-30T07:20:19.736Z,7.68
2022-10-30T07:21:19.937Z,7.72
2022-10-30T07:22:19.921Z,7.77
2022-10-30T07:23:20.040Z,7.82
2022-10-30T07:24:19.658Z,7.86
2022-10-30T07:25:19.667Z,7.90
2022-10-30T07:26:19.657Z,7.92
2022-10-30T07:27:19.902Z,7.97
2022-10-30T07:28:19.615Z,8.01
2022-10-30T07:29:19.617Z,8.07
2022-10-30T07:30:19.610Z,8.10
2022-10-30T07:31:28.943Z,8.16
2022-10-30T07:32:20.589Z,8.19
2022-10-30T07:33:19.585Z,8.20
2022-10-30T07:34:19.559Z,8.23
2022-10-30T07:35:19.557Z,8.26
2022-10-30T07:36:19.557Z,8.25
2022-10-30T07:37:27.578Z,8.25
2022-10-30T07:38:20.237Z,8.26
2022-10-30T07:39:19.517Z,8.30
2022-10-30T07:40:19.467Z,8.37
2022-10-30T07:41:19.477Z,8.43
2022-10-30T07:42:20.258Z,8.48
2022-10-30T07:43:19.487Z,8.58
2022-10-30T07:44:19.441Z,8.65
2022-10-30T07:45:21.615Z,8.73
2022-10-30T07:46:19.398Z,8.79
2022-10-30T07:47:19.408Z,8.87
2022-10-30T07:48:19.389Z,8.95
2022-10-30T07:49:19.398Z,9.01
2022-10-30T07:50:19.357Z,9.08
2022-10-30T07:51:19.368Z,9.14
2022-10-30T07:52:19.345Z,9.21
2022-10-30T07:53:19.347Z,9.29
2022-10-30T07:54:19.335Z,9.35
2022-10-30T07:55:19.315Z,9.40
2022-10-30T07:56:19.286Z,9.50
2022-10-30T07:57:19.297Z,9.54
2022-10-30T07:58:19.287Z,9.60
2022-10-30T07:59:19.269Z,9.66
2022-10-30T08:00:19.337Z,9.75
2022-10-30T08:01:19.508Z,9.83
2022-10-30T08:02:19.367Z,9.89
2022-10-30T08:03:20.133Z,9.96
2022-10-30T08:04:19.937Z,10.05
2022-10-30T08:05:19.206Z,10.09
2022-10-30T08:06:22.915Z,10.15
2022-10-30T08:07:20.176Z,10.18
2022-10-30T08:08:19.183Z,10.26
2022-10-30T08:09:19.175Z,10.33
2022-10-30T08:10:19.135Z,10.44
2022-10-30T08:11:19.156Z,10.52
2022-10-30T08:12:19.120Z,10.60
2022-10-30T08:13:19.119Z,10.67
2022-10-30T08:14:19.083Z,10.71
2022-10-30T08:15:19.086Z,10.82
2022-10-30T08:16:19.076Z,10.89
2022-10-30T08:17:19.146Z,10.97
2022-10-30T08:18:19.046Z,11.06
2022-10-30T08:19:19.045Z,11.15
2022-10-30T08:20:19.025Z,11.19
2022-10-30T08:21:19.023Z,11.29
2022-10-30T08:22:19.075Z,11.37
2022-10-30T08:23:19.755Z,11.46
2022-10-30T08:24:19.015Z,11.52
2022-10-30T08:25:19.007Z,11.60
2022-10-30T08:26:18.955Z,11.67
2022-10-30T08:27:19.776Z,11.76
2022-10-30T08:28:18.950Z,11.82
2022-10-30T08:29:18.939Z,11.90
2022-10-30T08:30:18.896Z,11.98
2022-10-30T08:31:18.906Z,12.05
2022-10-30T08:32:18.886Z,12.12
2022-10-30T08:33:18.886Z,12.21
2022-10-30T08:34:18.866Z,12.31
2022-10-30T08:35:20.263Z,12.39
2022-10-30T08:36:18.836Z,12.49
2022-10-30T08:37:19.279Z,12.57
2022-10-30T08:38:19.404Z,12.65
2022-10-30T08:39:18.823Z,12.75
2022-10-30T08:40:19.293Z,12.83
2022-10-30T08:41:18.816Z,12.90
2022-10-30T08:42:18.818Z,13.01
2022-10-30T08:43:19.525Z,13.08
2022-10-30T08:44:18.785Z,13.14
2022-10-30T08:45:19.744Z,13.25
2022-10-30T08:46:18.733Z,13.32
2022-10-30T08:47:19.494Z,13.42
2022-10-30T08:48:18.706Z,13.49
2022-10-30T08:49:18.850Z,13.57
2022-10-30T08:50:18.731Z,13.64
2022-10-30T08:51:18.676Z,13.71
2022-10-30T08:52:18.655Z,13.78
2022-10-30T08:53:18.656Z,13.84
2022-10-30T08:54:18.635Z,13.91
2022-10-30T08:55:18.683Z,13.97
2022-10-30T08:56:18.625Z,14.03
2022-10-30T08:57:18.614Z,14.10
2022-10-30T08:58:18.587Z,14.17
2022-10-30T08:59:21.168Z,14.24
2022-10-30T09:00:18.566Z,14.29
2022-10-30T09:01:18.681Z,14.37
2022-10-30T09:02:18.723Z,14.46
2022-10-30T09:03:18.542Z,14.52
2022-10-30T09:04:19.295Z,14.61
2022-10-30T09:05:19.199Z,14.69
2022-10-30T09:06:18.546Z,14.75
2022-10-30T09:07:18.504Z,14.84
2022-10-30T09:08:18.477Z,14.92
2022-10-30T09:09:18.473Z,14.98
2022-10-30T09:10:18.525Z,15.09
2022-10-30T09:11:18.686Z,15.11
2022-10-30T09:12:18.434Z,15.17
2022-10-30T09:13:18.424Z,15.23
2022-10-30T09:14:18.395Z,15.28
2022-10-30T09:15:18.405Z,15.38
2022-10-30T09:16:18.617Z,15.46
2022-10-30T09:17:18.632Z,15.54
2022-10-30T09:18:18.355Z,15.60
2022-10-30T09:19:19.020Z,15.64
2022-10-30T09:20:18.324Z,15.67
2022-10-30T09:21:18.345Z,15.69
2022-10-30T09:22:19.104Z,15.75
2022-10-30T09:23:18.323Z,15.82
2022-10-30T09:24:18.306Z,15.87
2022-10-30T09:25:19.183Z,15.94
2022-10-30T09:26:20.807Z,16.05
2022-10-30T09:27:18.296Z,16.08
2022-10-30T09:28:18.254Z,16.14
2022-10-30T09:29:18.267Z,16.14
2022-10-30T09:30:18.232Z,16.15
2022-10-30T09:31:18.204Z,16.15
2022-10-30T09:32:18.206Z,16.21
2022-10-30T09:33:18.919Z,16.28
2022-10-30T09:34:18.219Z,16.35
2022-10-30T09:35:18.176Z,16.41
2022-10-30T09:36:21.253Z,16.41
2022-10-30T09:37:18.157Z,16.38
2022-10-30T09:38:18.144Z,16.35
2022-10-30T09:39:18.264Z,16.33
2022-10-30T09:40:18.166Z,16.34
2022-10-30T09:41:18.105Z,16.39
2022-10-30T09:42:18.115Z,16.43
2022-10-30T09:43:18.104Z,16.43
2022-10-30T09:44:18.783Z,16.43
2022-10-30T09:45:34.245Z,16.41
2022-10-30T09:46:19.066Z,16.41
2022-10-30T09:47:23.063Z,16.42
2022-10-30T09:48:19.015Z,16.41
2022-10-30T09:49:18.036Z,16.41
2022-10-30T09:50:17.993Z,16.42
2022-10-30T09:51:17.986Z,16.45
2022-10-30T09:52:17.975Z,16.52
2022-10-30T09:53:17.975Z,16.61
2022-10-30T09:54:18.722Z,16.73
2022-10-30T09:55:18.565Z,16.82
2022-10-30T09:56:17.956Z,16.94
2022-10-30T09:57:17.915Z,17.06
2022-10-30T09:58:17.915Z,17.18
2022-10-30T09:59:17.897Z,17.28
2022-10-30T10:00:17.895Z,17.38
2022-10-30T10:01:17.992Z,17.51
2022-10-30T10:02:17.980Z,17.59
2022-10-30T10:03:17.851Z,17.74
2022-10-30T10:04:21.005Z,17.86
2022-10-30T10:05:18.876Z,17.95
2022-10-30T10:06:18.566Z,18.07
2022-10-30T10:07:17.937Z,18.11
2022-10-30T10:08:17.805Z,18.18
2022-10-30T10:09:17.778Z,18.29
2022-10-30T10:10:17.809Z,18.37
2022-10-30T10:11:17.759Z,18.45
2022-10-30T10:12:17.767Z,18.57
2022-10-30T10:13:17.977Z,18.65
2022-10-30T10:14:17.736Z,18.73
2022-10-30T10:15:17.706Z,18.81
2022-10-30T10:16:17.739Z,18.85
2022-10-30T10:17:17.697Z,18.91
2022-10-30T10:18:17.746Z,18.94
2022-10-30T10:19:17.667Z,18.99
2022-10-30T10:20:17.670Z,19.06
2022-10-30T10:21:17.638Z,19.10
2022-10-30T10:22:17.665Z,19.13
2022-10-30T10:23:17.629Z,19.19
2022-10-30T10:24:19.837Z,19.25
2022-10-30T10:25:17.606Z,19.28
2022-10-30T10:26:28.026Z,19.36
2022-10-30T10:27:17.571Z,19.43
2022-10-30T10:28:17.576Z,19.47
2022-10-30T10:29:17.553Z,19.50
2022-10-30T10:30:17.535Z,19.50
2022-10-30T10:31:17.514Z,19.55
2022-10-30T10:32:17.564Z,19.58
2022-10-30T10:33:17.564Z,19.62
2022-10-30T10:34:17.517Z,19.65
2022-10-30T10:35:17.477Z,19.69
2022-10-30T10:36:17.492Z,19.74
2022-10-30T10:37:17.450Z,19.81
2022-10-30T10:38:17.466Z,19.86
2022-10-30T10:39:17.439Z,19.88
2022-10-30T10:40:17.463Z,19.95
2022-10-30T10:41:17.431Z,19.98
2022-10-30T10:42:17.426Z,20.02
2022-10-30T10:43:17.405Z,20.08
2022-10-30T10:44:17.415Z,20.14
2022-10-30T10:45:17.380Z,20.21
2022-10-30T10:46:17.374Z,20.28
2022-10-30T10:47:17.665Z,20.33
2022-10-30T10:48:17.370Z,20.42
2022-10-30T10:49:17.324Z,20.50
2022-10-30T10:50:17.814Z,20.57
2022-10-30T10:51:17.330Z,20.64
2022-10-30T10:52:17.310Z,20.70
2022-10-30T10:53:17.330Z,20.74
2022-10-30T10:54:17.320Z,20.82
2022-10-30T10:55:17.269Z,20.88
2022-10-30T10:56:17.302Z,20.88
2022-10-30T10:57:17.268Z,20.85
2022-10-30T10:58:17.266Z,20.91
2022-10-30T10:59:17.206Z,20.97
2022-10-30T11:00:17.230Z,20.98
2022-10-30T11:01:17.429Z,21.01
2022-10-30T11:02:17.334Z,21.07
2022-10-30T11:04:17.182Z,21.14
2022-10-30T11:05:17.147Z,21.19
2022-10-30T11:06:17.197Z,21.25
2022-10-30T11:07:17.141Z,21.32
2022-10-30T11:08:17.248Z,21.40
2022-10-30T11:09:17.122Z,21.46
2022-10-30T11:10:17.137Z,21.54
2022-10-30T11:11:17.078Z,21.62
2022-10-30T11:12:17.868Z,21.69
2022-10-30T11:13:17.108Z,21.75
2022-10-30T11:14:17.130Z,21.82
2022-10-30T11:15:17.089Z,21.88
2022-10-30T11:16:17.044Z,21.92
2022-10-30T11:17:17.012Z,22.00
2022-10-30T11:18:17.063Z,22.02
2022-10-30T11:19:16.984Z,22.05
2022-10-30T11:20:17.063Z,22.12
2022-10-30T11:21:16.988Z,22.12
2022-10-30T11:22:16.971Z,22.12
2022-10-30T11:23:16.948Z,22.15
2022-10-30T11:24:16.970Z,22.18
2022-10-30T11:25:16.922Z,22.24
2022-10-30T11:26:16.929Z,22.27
2022-10-30T11:27:17.636Z,22.30
2022-10-30T11:28:17.608Z,22.33
2022-10-30T11:29:16.890Z,22.36
2022-10-30T11:30:16.889Z,22.39
2022-10-30T11:31:17.580Z,22.42
2022-10-30T11:32:16.958Z,22.42
2022-10-30T11:33:16.827Z,22.46
2022-10-30T11:34:16.822Z,22.54
2022-10-30T11:35:16.815Z,22.57
2022-10-30T11:36:16.863Z,22.62
2022-10-30T11:37:16.884Z,22.64
2022-10-30T11:38:16.792Z,22.67
2022-10-30T11:39:17.124Z,22.73
2022-10-30T11:40:16.765Z,22.76
2022-10-30T11:41:16.791Z,22.76
2022-10-30T11:42:16.740Z,22.76
2022-10-30T11:43:16.723Z,22.77
2022-10-30T11:44:16.767Z,22.80
2022-10-30T11:45:16.725Z,22.82
2022-10-30T11:46:16.724Z,22.83
2022-10-30T11:47:16.757Z,22.94
2022-10-30T11:48:17.030Z,22.97
2022-10-30T11:49:16.662Z,23.01
2022-10-30T11:50:17.022Z,23.05
2022-10-30T11:51:16.677Z,23.09
2022-10-30T11:52:16.631Z,23.09
2022-10-30T11:53:16.612Z,23.10
2022-10-30T11:54:16.611Z,23.09
2022-10-30T11:55:16.588Z,23.07
2022-10-30T11:56:16.614Z,23.10
2022-10-30T11:57:16.564Z,23.15
2022-10-30T11:58:16.553Z,23.19
2022-10-30T11:59:16.536Z,23.25
2022-10-30T12:00:16.556Z,23.22
2022-10-30T12:01:16.551Z,23.23
2022-10-30T12:02:16.691Z,23.22
2022-10-30T12:03:16.499Z,23.22
2022-10-30T12:04:16.492Z,23.27
2022-10-30T12:05:16.474Z,23.32
2022-10-30T12:06:16.482Z,23.33
2022-10-30T12:07:16.453Z,23.36
2022-10-30T12:08:17.245Z,23.39
2022-10-30T12:09:17.171Z,23.46
2022-10-30T12:10:16.443Z,23.48
2022-10-30T12:11:16.401Z,23.48
2022-10-30T12:12:16.403Z,23.50
2022-10-30T12:13:16.391Z,23.53
2022-10-30T12:14:16.398Z,23.53
2022-10-30T12:15:16.374Z,23.51
2022-10-30T12:16:16.373Z,23.46
2022-10-30T12:17:16.334Z,23.38
2022-10-30T12:18:16.398Z,23.32
2022-10-30T12:19:16.318Z,23.28
2022-10-30T12:20:16.399Z,23.22
2022-10-30T12:21:16.324Z,23.17
2022-10-30T12:22:16.302Z,23.12
2022-10-30T12:23:16.285Z,23.07
2022-10-30T12:24:16.285Z,23.00
2022-10-30T12:25:16.255Z,22.94
2022-10-30T12:26:16.263Z,22.91
2022-10-30T12:27:19.819Z,22.83
2022-10-30T12:28:17.235Z,22.76
2022-10-30T12:29:16.302Z,22.70
2022-10-30T12:30:16.291Z,22.67
2022-10-30T12:31:16.244Z,22.65
2022-10-30T12:32:16.175Z,22.64
2022-10-30T12:33:16.161Z,22.62
2022-10-30T12:34:16.179Z,22.65
2022-10-30T12:35:16.196Z,22.65
2022-10-30T12:36:16.139Z,22.67
2022-10-30T12:37:16.145Z,22.65
2022-10-30T12:38:16.116Z,22.70
2022-10-30T12:39:16.103Z,22.72
2022-10-30T12:40:16.878Z,22.77
2022-10-30T12:41:16.066Z,22.76
2022-10-30T12:42:16.114Z,22.80
2022-10-30T12:43:16.029Z,22.88
2022-10-30T12:44:16.046Z,22.90
2022-10-30T12:45:16.022Z,22.94
2022-10-30T12:46:16.035Z,23.02
2022-10-30T12:47:16.117Z,23.07
2022-10-30T12:48:16.810Z,23.13
2022-10-30T12:49:16.757Z,23.15
2022-10-30T12:50:16.079Z,23.16
2022-10-30T12:51:18.420Z,23.16
2022-10-30T12:52:16.962Z,23.16
2022-10-30T12:53:16.045Z,23.20
2022-10-30T12:54:15.958Z,23.20
2022-10-30T12:55:15.907Z,23.23
2022-10-30T12:56:16.046Z,23.25
2022-10-30T12:57:15.889Z,23.27
2022-10-30T12:58:15.880Z,23.22
2022-10-30T12:59:15.963Z,23.22
2022-10-30T13:00:15.958Z,23.25
2022-10-30T13:01:15.898Z,23.28
2022-10-30T13:02:15.989Z,23.28
2022-10-30T13:03:15.833Z,23.23
2022-10-30T13:04:15.908Z,23.25
2022-10-30T13:05:15.789Z,23.25
2022-10-30T13:06:15.807Z,23.22
2022-10-30T13:07:15.760Z,23.16
2022-10-30T13:08:15.798Z,23.16